sensor_id;sensor_type;location;lat;lon;timestamp;pressure;altitude;pressure_sealevel;temperature;humidity
25610;BME280;13479;49.044;8.716;2023-06-01T04:01:24;99187.91;;;13.09;63.38
25610;BME280;13479;49.044;8.716;2023-06-01T04:03:54;99189.88;;;13.17;63.55
25610;BME280;13479;49.044;8.716;2023-06-01T04:06:20;99194.50;;;13.15;63.74
25610;BME280;13479;49.044;8.716;2023-06-01T04:08:46;99192.38;;;13.18;63.33
25610;BME280;13479;49.044;8.716;2023-06-01T04:11:16;99199.94;;;13.13;63.53
25610;BME280;13479;49.044;8.716;2023-06-01T04:13:42;99197.72;;;13.08;64.03
25610;BME280;13479;49.044;8.716;2023-06-01T04:16:08;99200.09;;;13.11;64.06
25610;BME280;13479;49.044;8.716;2023-06-01T04:18:34;99201.06;;;13.20;63.97
25610;BME280;13479;49.044;8.716;2023-06-01T04:21:00;99200.75;;;13.23;64.14
25610;BME280;13479;49.044;8.716;2023-06-01T04:23:25;99209.72;;;13.42;63.64
25610;BME280;13479;49.044;8.716;2023-06-01T04:25:50;99224.56;;;13.54;63.25
25610;BME280;13479;49.044;8.716;2023-06-01T04:28:16;99222.88;;;13.53;63.22
25610;BME280;13479;49.044;8.716;2023-06-01T04:30:42;99230.28;;;13.59;63.14
25610;BME280;13479;49.044;8.716;2023-06-01T04:33:09;99223.06;;;13.70;62.97
25610;BME280;13479;49.044;8.716;2023-06-01T04:35:35;99229.91;;;13.82;62.98
25610;BME280;13479;49.044;8.716;2023-06-01T04:38:02;99250.06;;;13.95;62.45
25610;BME280;13479;49.044;8.716;2023-06-01T04:40:27;99267.84;;;14.04;61.89
25610;BME280;13479;49.044;8.716;2023-06-01T04:42:53;99283.38;;;14.18;61.85
25610;BME280;13479;49.044;8.716;2023-06-01T04:45:21;99288.53;;;14.48;60.70
25610;BME280;13479;49.044;8.716;2023-06-01T04:47:46;99287.03;;;14.45;61.00
25610;BME280;13479;49.044;8.716;2023-06-01T04:50:12;99285.81;;;14.58;60.80
25610;BME280;13479;49.044;8.716;2023-06-01T04:52:39;99287.38;;;14.78;60.27
25610;BME280;13479;49.044;8.716;2023-06-01T04:55:05;99288.34;;;14.95;59.77
25610;BME280;13479;49.044;8.716;2023-06-01T04:57:31;99294.59;;;15.04;59.73
25610;BME280;13479;49.044;8.716;2023-06-01T04:59:58;99291.66;;;15.16;58.94
25610;BME280;13479;49.044;8.716;2023-06-01T05:02:25;99286.75;;;15.29;58.89
25610;BME280;13479;49.044;8.716;2023-06-01T05:04:50;99283.88;;;15.49;58.98
25610;BME280;13479;49.044;8.716;2023-06-01T05:07:16;99278.63;;;15.65;58.89
25610;BME280;13479;49.044;8.716;2023-06-01T05:09:41;99278.88;;;15.80;58.38
25610;BME280;13479;49.044;8.716;2023-06-01T05:12:06;99296.63;;;16.16;57.61
25610;BME280;13479;49.044;8.716;2023-06-01T05:14:32;99298.94;;;16.62;56.28
25610;BME280;13479;49.044;8.716;2023-06-01T05:16:57;99286.41;;;18.10;53.47
25610;BME280;13479;49.044;8.716;2023-06-01T05:19:22;99268.31;;;20.18;48.90
25610;BME280;13479;49.044;8.716;2023-06-01T05:21:48;99268.75;;;22.29;44.40
25610;BME280;13479;49.044;8.716;2023-06-01T05:24:13;99265.44;;;24.08;40.07
25610;BME280;13479;49.044;8.716;2023-06-01T05:26:38;99287.09;;;25.68;36.33
25610;BME280;13479;49.044;8.716;2023-06-01T05:29:03;99300.03;;;27.20;33.68
25610;BME280;13479;49.044;8.716;2023-06-01T05:31:29;99308.13;;;28.39;31.24
25610;BME280;13479;49.044;8.716;2023-06-01T05:33:54;99327.84;;;29.67;29.22
25610;BME280;13479;49.044;8.716;2023-06-01T05:36:20;99326.34;;;30.38;27.86
25610;BME280;13479;49.044;8.716;2023-06-01T05:38:45;99340.59;;;31.50;26.33
25610;BME280;13479;49.044;8.716;2023-06-01T05:41:11;99349.63;;;32.36;25.26
25610;BME280;13479;49.044;8.716;2023-06-01T05:43:36;99351.22;;;33.42;24.10
25610;BME280;13479;49.044;8.716;2023-06-01T05:46:02;99351.19;;;33.73;23.62
25610;BME280;13479;49.044;8.716;2023-06-01T05:48:27;99369.47;;;34.45;22.68
25610;BME280;13479;49.044;8.716;2023-06-01T05:50:53;99363.63;;;35.02;21.90
25610;BME280;13479;49.044;8.716;2023-06-01T05:53:18;99362.84;;;35.65;21.17
25610;BME280;13479;49.044;8.716;2023-06-01T05:55:43;99354.75;;;36.04;20.43
25610;BME280;13479;49.044;8.716;2023-06-01T05:58:08;99366.22;;;36.59;19.87
25610;BME280;13479;49.044;8.716;2023-06-01T06:00:34;99360.81;;;37.25;19.88
25610;BME280;13479;49.044;8.716;2023-06-01T06:03:02;99360.75;;;37.64;19.07
25610;BME280;13479;49.044;8.716;2023-06-01T06:05:28;99362.16;;;38.08;18.40
25610;BME280;13479;49.044;8.716;2023-06-01T06:07:54;99353.81;;;38.36;18.20
25610;BME280;13479;49.044;8.716;2023-06-01T06:10:19;99358.63;;;38.95;17.71
25610;BME280;13479;49.044;8.716;2023-06-01T06:12:44;99356.50;;;38.41;17.82
25610;BME280;13479;49.044;8.716;2023-06-01T06:15:10;99355.75;;;39.00;16.68
25610;BME280;13479;49.044;8.716;2023-06-01T06:17:35;99352.09;;;38.77;17.04
25610;BME280;13479;49.044;8.716;2023-06-01T06:20:00;99365.25;;;38.71;17.21
25610;BME280;13479;49.044;8.716;2023-06-01T06:22:25;99362.88;;;39.15;16.92
25610;BME280;13479;49.044;8.716;2023-06-01T06:24:51;99366.06;;;39.54;16.29
25610;BME280;13479;49.044;8.716;2023-06-01T06:27:16;99363.41;;;39.72;17.06
25610;BME280;13479;49.044;8.716;2023-06-01T06:29:41;99361.47;;;39.72;16.49
25610;BME280;13479;49.044;8.716;2023-06-01T06:32:07;99358.56;;;40.26;16.00
25610;BME280;13479;49.044;8.716;2023-06-01T06:34:32;99365.53;;;40.15;16.42
25610;BME280;13479;49.044;8.716;2023-06-01T06:37:03;99359.81;;;40.78;15.70
25610;BME280;13479;49.044;8.716;2023-06-01T06:39:28;99351.78;;;40.94;15.67
25610;BME280;13479;49.044;8.716;2023-06-01T06:41:53;99366.84;;;41.02;15.80
25610;BME280;13479;49.044;8.716;2023-06-01T06:44:19;99365.16;;;41.45;15.26
25610;BME280;13479;49.044;8.716;2023-06-01T06:46:44;99365.81;;;41.50;14.52
25610;BME280;13479;49.044;8.716;2023-06-01T06:49:09;99357.84;;;41.14;14.97
25610;BME280;13479;49.044;8.716;2023-06-01T06:51:37;99359.09;;;40.46;15.62
25610;BME280;13479;49.044;8.716;2023-06-01T06:54:02;99358.81;;;40.91;14.96
25610;BME280;13479;49.044;8.716;2023-06-01T06:56:30;99359.88;;;41.61;14.82
25610;BME280;13479;49.044;8.716;2023-06-01T06:58:55;99346.78;;;41.44;15.27
25610;BME280;13479;49.044;8.716;2023-06-01T07:01:21;99353.38;;;41.87;15.23
25610;BME280;13479;49.044;8.716;2023-06-01T07:03:46;99356.28;;;41.60;15.29
25610;BME280;13479;49.044;8.716;2023-06-01T07:06:11;99347.72;;;42.43;14.91
25610;BME280;13479;49.044;8.716;2023-06-01T07:08:37;99355.16;;;42.60;14.57
25610;BME280;13479;49.044;8.716;2023-06-01T07:11:04;99351.44;;;42.47;14.54
25610;BME280;13479;49.044;8.716;2023-06-01T07:13:30;99353.88;;;42.79;14.31
25610;BME280;13479;49.044;8.716;2023-06-01T07:15:55;99348.75;;;43.35;14.10
25610;BME280;13479;49.044;8.716;2023-06-01T07:18:20;99350.47;;;43.61;13.69
25610;BME280;13479;49.044;8.716;2023-06-01T07:20:46;99356.81;;;44.08;13.56
25610;BME280;13479;49.044;8.716;2023-06-01T07:23:11;99359.03;;;44.02;14.09
25610;BME280;13479;49.044;8.716;2023-06-01T07:25:41;99358.88;;;44.23;13.98
25610;BME280;13479;49.044;8.716;2023-06-01T07:28:06;99357.50;;;44.05;14.00
25610;BME280;13479;49.044;8.716;2023-06-01T07:30:32;99355.81;;;43.66;13.81
25610;BME280;13479;49.044;8.716;2023-06-01T07:32:58;99348.34;;;44.57;13.27
25610;BME280;13479;49.044;8.716;2023-06-01T07:35:23;99345.72;;;44.24;13.65
25610;BME280;13479;49.044;8.716;2023-06-01T07:37:49;99352.47;;;44.23;13.61
25610;BME280;13479;49.044;8.716;2023-06-01T07:40:14;99352.59;;;44.26;13.86
25610;BME280;13479;49.044;8.716;2023-06-01T07:42:40;99349.44;;;44.16;13.45
25610;BME280;13479;49.044;8.716;2023-06-01T07:45:05;99342.41;;;44.87;13.12
25610;BME280;13479;49.044;8.716;2023-06-01T07:47:33;99342.13;;;45.05;13.23
25610;BME280;13479;49.044;8.716;2023-06-01T07:49:58;99345.03;;;45.69;12.57
25610;BME280;13479;49.044;8.716;2023-06-01T07:52:24;99343.94;;;45.13;13.14
25610;BME280;13479;49.044;8.716;2023-06-01T07:54:50;99348.97;;;45.36;13.25
25610;BME280;13479;49.044;8.716;2023-06-01T07:57:15;99340.50;;;45.04;13.46
25610;BME280;13479;49.044;8.716;2023-06-01T07:59:41;99345.28;;;45.03;13.18
25610;BME280;13479;49.044;8.716;2023-06-01T08:02:06;99342.53;;;45.64;13.17
25610;BME280;13479;49.044;8.716;2023-06-01T08:04:32;99344.75;;;45.58;13.35
25610;BME280;13479;49.044;8.716;2023-06-01T08:06:58;99334.47;;;44.89;13.10
25610;BME280;13479;49.044;8.716;2023-06-01T08:09:24;99343.31;;;45.80;12.82
25610;BME280;13479;49.044;8.716;2023-06-01T08:11:49;99342.75;;;46.07;12.83
25610;BME280;13479;49.044;8.716;2023-06-01T08:14:16;99339.06;;;46.03;12.61
25610;BME280;13479;49.044;8.716;2023-06-01T08:16:42;99338.50;;;46.13;12.79
25610;BME280;13479;49.044;8.716;2023-06-01T08:19:07;99341.16;;;46.41;12.87
25610;BME280;13479;49.044;8.716;2023-06-01T08:21:34;99334.88;;;46.13;12.72
25610;BME280;13479;49.044;8.716;2023-06-01T08:24:00;99335.19;;;46.43;12.57
25610;BME280;13479;49.044;8.716;2023-06-01T08:26:26;99329.22;;;46.29;12.34
25610;BME280;13479;49.044;8.716;2023-06-01T08:28:51;99329.34;;;47.11;11.77
25610;BME280;13479;49.044;8.716;2023-06-01T08:31:22;99329.41;;;47.14;11.86
25610;BME280;13479;49.044;8.716;2023-06-01T08:33:48;99327.72;;;47.10;12.45
25610;BME280;13479;49.044;8.716;2023-06-01T08:36:14;99334.53;;;47.52;11.70
25610;BME280;13479;49.044;8.716;2023-06-01T08:38:41;99328.53;;;47.53;11.91
25610;BME280;13479;49.044;8.716;2023-06-01T08:41:31;99325.00;;;47.37;11.65
25610;BME280;13479;49.044;8.716;2023-06-01T08:44:03;99329.25;;;47.50;12.07
25610;BME280;13479;49.044;8.716;2023-06-01T08:46:31;99320.38;;;47.48;11.82
25610;BME280;13479;49.044;8.716;2023-06-01T08:48:58;99304.41;;;47.09;11.87
25610;BME280;13479;49.044;8.716;2023-06-01T08:51:24;99314.66;;;46.98;12.05
25610;BME280;13479;49.044;8.716;2023-06-01T08:53:51;99313.09;;;47.20;11.85
25610;BME280;13479;49.044;8.716;2023-06-01T08:56:17;99308.34;;;47.05;11.93
25610;BME280;13479;49.044;8.716;2023-06-01T08:58:44;99311.91;;;47.01;11.86
25610;BME280;13479;49.044;8.716;2023-06-01T09:01:13;99309.81;;;47.41;11.91
25610;BME280;13479;49.044;8.716;2023-06-01T09:03:40;99308.13;;;47.37;12.17
25610;BME280;13479;49.044;8.716;2023-06-01T09:06:06;99307.03;;;47.18;11.86
25610;BME280;13479;49.044;8.716;2023-06-01T09:08:31;99309.50;;;46.80;12.71
25610;BME280;13479;49.044;8.716;2023-06-01T09:10:56;99304.41;;;45.95;12.83
25610;BME280;13479;49.044;8.716;2023-06-01T09:13:38;99302.63;;;46.22;12.67
25610;BME280;13479;49.044;8.716;2023-06-01T09:16:04;99295.38;;;45.86;12.63
25610;BME280;13479;49.044;8.716;2023-06-01T09:18:30;99291.56;;;45.94;12.41
25610;BME280;13479;49.044;8.716;2023-06-01T09:21:14;99289.41;;;46.23;12.71
25610;BME280;13479;49.044;8.716;2023-06-01T09:23:42;99292.38;;;46.30;13.37
25610;BME280;13479;49.044;8.716;2023-06-01T09:26:10;99287.34;;;46.20;12.40
25610;BME280;13479;49.044;8.716;2023-06-01T09:31:47;99287.16;;;45.77;12.39
25610;BME280;13479;49.044;8.716;2023-06-01T09:34:18;99285.91;;;45.42;12.98
25610;BME280;13479;49.044;8.716;2023-06-01T09:36:51;99287.88;;;45.42;12.99
25610;BME280;13479;49.044;8.716;2023-06-01T09:39:18;99277.63;;;45.17;13.13
25610;BME280;13479;49.044;8.716;2023-06-01T09:41:48;99280.06;;;45.19;13.29
25610;BME280;13479;49.044;8.716;2023-06-01T09:44:14;99279.59;;;45.01;13.02
25610;BME280;13479;49.044;8.716;2023-06-01T09:46:47;99271.47;;;44.96;13.17
25610;BME280;13479;49.044;8.716;2023-06-01T09:49:21;99259.00;;;45.09;13.00
25610;BME280;13479;49.044;8.716;2023-06-01T09:51:48;99265.53;;;44.56;13.63
25610;BME280;13479;49.044;8.716;2023-06-01T09:54:25;99264.41;;;43.79;14.12
25610;BME280;13479;49.044;8.716;2023-06-01T09:56:52;99251.31;;;43.96;13.95
25610;BME280;13479;49.044;8.716;2023-06-01T09:59:17;99248.00;;;44.31;13.83
25610;BME280;13479;49.044;8.716;2023-06-01T10:01:43;99239.59;;;44.72;13.79
25610;BME280;13479;49.044;8.716;2023-06-01T10:04:13;99246.66;;;44.53;13.72
25610;BME280;13479;49.044;8.716;2023-06-01T10:06:40;99247.28;;;43.81;14.05
25610;BME280;13479;49.044;8.716;2023-06-01T10:09:11;99239.09;;;43.76;14.47
25610;BME280;13479;49.044;8.716;2023-06-01T10:11:41;99234.56;;;43.84;14.45
25610;BME280;13479;49.044;8.716;2023-06-01T10:14:06;99242.47;;;43.81;13.88
25610;BME280;13479;49.044;8.716;2023-06-01T10:16:33;99223.66;;;43.66;14.33
25610;BME280;13479;49.044;8.716;2023-06-01T10:18:59;99223.16;;;43.51;14.85
25610;BME280;13479;49.044;8.716;2023-06-01T10:21:26;99213.72;;;43.81;14.29
25610;BME280;13479;49.044;8.716;2023-06-01T10:23:52;99220.72;;;43.75;14.05
25610;BME280;13479;49.044;8.716;2023-06-01T10:26:18;99220.38;;;43.64;14.18
25610;BME280;13479;49.044;8.716;2023-06-01T10:28:47;99226.91;;;42.97;14.19
25610;BME280;13479;49.044;8.716;2023-06-01T10:31:32;99216.41;;;42.27;14.38
25610;BME280;13479;49.044;8.716;2023-06-01T10:33:57;99204.63;;;42.00;14.54
25610;BME280;13479;49.044;8.716;2023-06-01T10:36:23;99200.25;;;42.54;14.79
25610;BME280;13479;49.044;8.716;2023-06-01T10:38:48;99194.53;;;42.29;13.99
25610;BME280;13479;49.044;8.716;2023-06-01T10:41:30;99190.50;;;41.75;14.73
25610;BME280;13479;49.044;8.716;2023-06-01T10:43:56;99191.00;;;40.82;14.44
25610;BME280;13479;49.044;8.716;2023-06-01T10:49:02;99181.41;;;40.53;15.40
25610;BME280;13479;49.044;8.716;2023-06-01T10:51:28;99183.88;;;40.46;15.97
25610;BME280;13479;49.044;8.716;2023-06-01T10:53:54;99178.38;;;39.70;14.81
25610;BME280;13479;49.044;8.716;2023-06-01T10:56:24;99165.41;;;38.99;15.57
25610;BME280;13479;49.044;8.716;2023-06-01T11:01:43;99161.25;;;38.20;16.28
25610;BME280;13479;49.044;8.716;2023-06-01T11:04:09;99160.38;;;37.82;16.95
25610;BME280;13479;49.044;8.716;2023-06-01T11:06:36;99158.38;;;37.46;17.07
25610;BME280;13479;49.044;8.716;2023-06-01T11:09:05;99138.19;;;37.04;17.01
25610;BME280;13479;49.044;8.716;2023-06-01T11:14:19;99132.63;;;36.05;17.78
25610;BME280;13479;49.044;8.716;2023-06-01T11:16:46;99136.91;;;35.29;18.28
25610;BME280;13479;49.044;8.716;2023-06-01T11:19:19;99134.88;;;34.52;18.58
25610;BME280;13479;49.044;8.716;2023-06-01T11:21:59;99126.09;;;33.60;18.86
25610;BME280;13479;49.044;8.716;2023-06-01T11:24:32;99125.63;;;33.32;19.71
25610;BME280;13479;49.044;8.716;2023-06-01T11:27:06;99117.75;;;32.78;19.73
25610;BME280;13479;49.044;8.716;2023-06-01T11:29:32;99118.31;;;32.24;20.37
25610;BME280;13479;49.044;8.716;2023-06-01T11:32:02;99117.94;;;31.73;20.32
25610;BME280;13479;49.044;8.716;2023-06-01T11:34:37;99100.25;;;31.38;21.05
25610;BME280;13479;49.044;8.716;2023-06-01T11:37:04;99115.25;;;31.20;22.50
25610;BME280;13479;49.044;8.716;2023-06-01T11:39:30;99096.44;;;30.96;22.26
25610;BME280;13479;49.044;8.716;2023-06-01T11:44:33;99102.84;;;30.37;23.21
25610;BME280;13479;49.044;8.716;2023-06-01T11:46:58;99091.22;;;30.19;22.36
25610;BME280;13479;49.044;8.716;2023-06-01T11:49:24;99085.28;;;30.00;22.22
25610;BME280;13479;49.044;8.716;2023-06-01T11:51:51;99075.00;;;29.85;22.37
25610;BME280;13479;49.044;8.716;2023-06-01T11:54:21;99063.00;;;29.92;22.01
25610;BME280;13479;49.044;8.716;2023-06-01T11:56:47;99063.09;;;29.69;22.28
25610;BME280;13479;49.044;8.716;2023-06-01T11:59:12;99055.84;;;29.58;22.59
25610;BME280;13479;49.044;8.716;2023-06-01T12:01:48;99067.31;;;29.33;23.10
25610;BME280;13479;49.044;8.716;2023-06-01T12:04:18;99061.75;;;29.27;23.59
25610;BME280;13479;49.044;8.716;2023-06-01T12:06:44;99067.09;;;29.17;23.66
25610;BME280;13479;49.044;8.716;2023-06-01T12:09:11;99072.88;;;29.21;24.67
25610;BME280;13479;49.044;8.716;2023-06-01T12:11:37;99067.69;;;29.19;24.03
25610;BME280;13479;49.044;8.716;2023-06-01T12:14:03;99055.13;;;29.23;24.14
25610;BME280;13479;49.044;8.716;2023-06-01T12:16:53;99059.97;;;29.16;24.44
25610;BME280;13479;49.044;8.716;2023-06-01T12:19:19;99043.03;;;29.36;23.51
25610;BME280;13479;49.044;8.716;2023-06-01T12:21:52;99041.53;;;29.28;23.91
25610;BME280;13479;49.044;8.716;2023-06-01T12:24:25;99039.47;;;29.36;24.08
25610;BME280;13479;49.044;8.716;2023-06-01T12:26:52;99040.16;;;29.48;24.91
25610;BME280;13479;49.044;8.716;2023-06-01T12:29:39;99041.69;;;29.39;23.25
25610;BME280;13479;49.044;8.716;2023-06-01T12:32:07;99042.03;;;29.25;23.31
25610;BME280;13479;49.044;8.716;2023-06-01T12:34:34;99036.47;;;29.15;23.95
25610;BME280;13479;49.044;8.716;2023-06-01T12:37:13;99032.56;;;29.11;23.40
25610;BME280;13479;49.044;8.716;2023-06-01T12:39:39;99028.06;;;29.00;23.88
25610;BME280;13479;49.044;8.716;2023-06-01T12:42:06;99033.03;;;29.03;23.95
25610;BME280;13479;49.044;8.716;2023-06-01T12:44:31;99031.63;;;29.22;23.68
25610;BME280;13479;49.044;8.716;2023-06-01T12:47:00;99035.84;;;29.08;22.58
25610;BME280;13479;49.044;8.716;2023-06-01T12:49:26;99031.38;;;29.02;23.52
25610;BME280;13479;49.044;8.716;2023-06-01T12:51:52;99026.34;;;28.93;23.65
25610;BME280;13479;49.044;8.716;2023-06-01T12:54:18;99023.13;;;28.96;24.67
25610;BME280;13479;49.044;8.716;2023-06-01T12:56:44;99020.44;;;29.02;24.26
25610;BME280;13479;49.044;8.716;2023-06-01T12:59:09;99015.34;;;28.88;23.70
25610;BME280;13479;49.044;8.716;2023-06-01T13:01:35;99016.28;;;28.77;25.08
25610;BME280;13479;49.044;8.716;2023-06-01T13:04:00;99010.03;;;28.99;23.62
25610;BME280;13479;49.044;8.716;2023-06-01T13:06:28;99019.84;;;29.00;22.80
25610;BME280;13479;49.044;8.716;2023-06-01T13:08:53;99015.69;;;28.92;23.84
25610;BME280;13479;49.044;8.716;2023-06-01T13:11:18;99015.50;;;28.99;24.05
25610;BME280;13479;49.044;8.716;2023-06-01T13:13:44;99022.09;;;29.03;22.86
25610;BME280;13479;49.044;8.716;2023-06-01T13:16:10;99015.44;;;28.93;22.97
25610;BME280;13479;49.044;8.716;2023-06-01T13:18:36;99023.41;;;28.78;23.00
25610;BME280;13479;49.044;8.716;2023-06-01T13:21:01;99023.81;;;28.70;23.12
25610;BME280;13479;49.044;8.716;2023-06-01T13:23:27;99013.25;;;28.73;23.60
25610;BME280;13479;49.044;8.716;2023-06-01T13:25:53;99013.72;;;28.87;24.08
25610;BME280;13479;49.044;8.716;2023-06-01T13:28:19;99000.31;;;28.69;24.02
25610;BME280;13479;49.044;8.716;2023-06-01T13:30:44;98997.72;;;28.57;24.82
25610;BME280;13479;49.044;8.716;2023-06-01T13:33:09;99010.69;;;28.49;26.57
25610;BME280;13479;49.044;8.716;2023-06-01T13:35:35;99006.97;;;28.56;25.23
25610;BME280;13479;49.044;8.716;2023-06-01T13:38:00;98994.78;;;28.63;24.75
25610;BME280;13479;49.044;8.716;2023-06-01T13:40:25;98987.91;;;28.61;25.14
25610;BME280;13479;49.044;8.716;2023-06-01T13:42:51;98988.44;;;28.58;26.00
25610;BME280;13479;49.044;8.716;2023-06-01T13:45:18;98984.94;;;28.62;25.16
25610;BME280;13479;49.044;8.716;2023-06-01T13:47:43;98979.50;;;28.62;25.25
25610;BME280;13479;49.044;8.716;2023-06-01T13:50:09;98982.78;;;28.64;25.39
25610;BME280;13479;49.044;8.716;2023-06-01T13:52:36;98975.28;;;28.55;25.65
25610;BME280;13479;49.044;8.716;2023-06-01T13:55:01;98972.88;;;28.58;25.00
25610;BME280;13479;49.044;8.716;2023-06-01T13:57:28;98974.13;;;28.50;25.72
25610;BME280;13479;49.044;8.716;2023-06-01T13:59:53;98983.13;;;28.68;27.03
25610;BME280;13479;49.044;8.716;2023-06-01T14:02:19;98965.84;;;28.62;26.57
25610;BME280;13479;49.044;8.716;2023-06-01T14:04:45;98962.53;;;28.60;26.34
25610;BME280;13479;49.044;8.716;2023-06-01T14:07:10;98958.13;;;28.59;26.31
25610;BME280;13479;49.044;8.716;2023-06-01T14:09:36;98953.94;;;28.51;26.39
25610;BME280;13479;49.044;8.716;2023-06-01T14:12:01;98956.78;;;28.62;27.83
25610;BME280;13479;49.044;8.716;2023-06-01T14:14:26;98958.13;;;28.59;26.71
25610;BME280;13479;49.044;8.716;2023-06-01T14:16:51;98951.31;;;28.79;26.50
25610;BME280;13479;49.044;8.716;2023-06-01T14:19:17;98939.25;;;28.75;27.27
25610;BME280;13479;49.044;8.716;2023-06-01T14:21:42;98940.81;;;28.71;27.32
25610;BME280;13479;49.044;8.716;2023-06-01T14:24:07;98939.75;;;28.72;25.64
25610;BME280;13479;49.044;8.716;2023-06-01T14:26:32;98939.75;;;28.72;25.95
25610;BME280;13479;49.044;8.716;2023-06-01T14:28:58;98938.56;;;28.67;26.80
25610;BME280;13479;49.044;8.716;2023-06-01T14:31:23;98932.72;;;28.76;26.83
25610;BME280;13479;49.044;8.716;2023-06-01T14:33:48;98941.69;;;28.54;27.04
25610;BME280;13479;49.044;8.716;2023-06-01T14:36:14;98937.84;;;28.72;27.28
25610;BME280;13479;49.044;8.716;2023-06-01T14:38:40;98928.88;;;28.77;27.42
25610;BME280;13479;49.044;8.716;2023-06-01T14:41:05;98927.81;;;28.78;27.24
25610;BME280;13479;49.044;8.716;2023-06-01T14:43:31;98931.41;;;28.84;27.61
25610;BME280;13479;49.044;8.716;2023-06-01T14:45:57;98928.44;;;28.85;26.06
25610;BME280;13479;49.044;8.716;2023-06-01T14:48:22;98924.41;;;28.71;25.79
25610;BME280;13479;49.044;8.716;2023-06-01T14:50:47;98922.38;;;28.61;26.73
25610;BME280;13479;49.044;8.716;2023-06-01T14:53:13;98921.06;;;28.63;28.03
25610;BME280;13479;49.044;8.716;2023-06-01T14:55:41;98922.88;;;28.75;27.30
25610;BME280;13479;49.044;8.716;2023-06-01T14:58:08;98919.72;;;28.88;28.06
25610;BME280;13479;49.044;8.716;2023-06-01T15:00:34;98914.84;;;28.90;27.47
25610;BME280;13479;49.044;8.716;2023-06-01T15:03:00;98922.47;;;28.88;26.95
25610;BME280;13479;49.044;8.716;2023-06-01T15:05:25;98909.13;;;28.92;26.73
25610;BME280;13479;49.044;8.716;2023-06-01T15:07:50;98913.84;;;28.96;27.11
25610;BME280;13479;49.044;8.716;2023-06-01T15:10:16;98919.50;;;28.90;26.54
25610;BME280;13479;49.044;8.716;2023-06-01T15:12:41;98905.53;;;28.86;27.05
25610;BME280;13479;49.044;8.716;2023-06-01T15:15:06;98904.44;;;28.87;27.53
25610;BME280;13479;49.044;8.716;2023-06-01T15:17:32;98902.41;;;28.77;27.91
25610;BME280;13479;49.044;8.716;2023-06-01T15:19:57;98897.22;;;28.76;27.64
25610;BME280;13479;49.044;8.716;2023-06-01T15:22:22;98898.97;;;28.87;27.15
25610;BME280;13479;49.044;8.716;2023-06-01T15:24:47;98898.28;;;28.75;26.40
25610;BME280;13479;49.044;8.716;2023-06-01T15:27:13;98901.31;;;28.78;26.52
25610;BME280;13479;49.044;8.716;2023-06-01T15:29:38;98893.72;;;28.80;26.72
25610;BME280;13479;49.044;8.716;2023-06-01T15:32:04;98896.19;;;28.82;26.36
25610;BME280;13479;49.044;8.716;2023-06-01T15:34:29;98890.25;;;28.90;27.13
25610;BME280;13479;49.044;8.716;2023-06-01T15:36:54;98896.09;;;28.99;27.38
25610;BME280;13479;49.044;8.716;2023-06-01T15:39:20;98888.47;;;29.01;27.66
25610;BME280;13479;49.044;8.716;2023-06-01T15:41:46;98895.03;;;29.05;26.84
25610;BME280;13479;49.044;8.716;2023-06-01T15:44:11;98898.25;;;28.97;26.30
25610;BME280;13479;49.044;8.716;2023-06-01T15:46:36;98896.41;;;29.03;26.14
25610;BME280;13479;49.044;8.716;2023-06-01T15:49:01;98898.50;;;28.95;27.17
25610;BME280;13479;49.044;8.716;2023-06-01T15:51:27;98899.09;;;28.97;26.63
25610;BME280;13479;49.044;8.716;2023-06-01T15:53:53;98891.03;;;28.86;26.98
25610;BME280;13479;49.044;8.716;2023-06-01T15:56:19;98886.41;;;28.86;26.76
25610;BME280;13479;49.044;8.716;2023-06-01T15:58:44;98878.13;;;28.81;27.02
25610;BME280;13479;49.044;8.716;2023-06-01T16:01:09;98881.75;;;28.87;27.47
25610;BME280;13479;49.044;8.716;2023-06-01T16:03:35;98881.34;;;29.00;27.28
25610;BME280;13479;49.044;8.716;2023-06-01T16:06:00;98871.75;;;28.97;27.71
25610;BME280;13479;49.044;8.716;2023-06-01T16:08:26;98869.63;;;29.05;27.06
25610;BME280;13479;49.044;8.716;2023-06-01T16:10:51;98863.09;;;29.06;27.68
25610;BME280;13479;49.044;8.716;2023-06-01T16:13:16;98873.75;;;29.07;28.07
25610;BME280;13479;49.044;8.716;2023-06-01T16:15:42;98870.72;;;29.04;28.08
25610;BME280;13479;49.044;8.716;2023-06-01T16:18:07;98867.13;;;28.98;27.94
25610;BME280;13479;49.044;8.716;2023-06-01T16:20:32;98855.38;;;28.97;29.29
25610;BME280;13479;49.044;8.716;2023-06-01T16:22:58;98868.56;;;29.06;28.13
25610;BME280;13479;49.044;8.716;2023-06-01T16:25:23;98858.44;;;29.06;28.56
25610;BME280;13479;49.044;8.716;2023-06-01T16:27:54;98855.41;;;29.03;28.26
25610;BME280;13479;49.044;8.716;2023-06-01T16:30:19;98851.22;;;28.95;28.26
25610;BME280;13479;49.044;8.716;2023-06-01T16:32:46;98851.91;;;29.07;27.71
25610;BME280;13479;49.044;8.716;2023-06-01T16:35:11;98851.56;;;28.99;27.93
25610;BME280;13479;49.044;8.716;2023-06-01T16:37:36;98847.63;;;28.89;28.02
25610;BME280;13479;49.044;8.716;2023-06-01T16:40:02;98840.41;;;28.78;28.37
25610;BME280;13479;49.044;8.716;2023-06-01T16:42:27;98841.53;;;28.82;28.63
25610;BME280;13479;49.044;8.716;2023-06-01T16:44:52;98840.34;;;28.73;28.74
25610;BME280;13479;49.044;8.716;2023-06-01T16:47:18;98837.63;;;28.73;29.47
25610;BME280;13479;49.044;8.716;2023-06-01T16:49:43;98844.06;;;28.66;29.31
25610;BME280;13479;49.044;8.716;2023-06-01T16:52:08;98839.03;;;28.53;29.34
25610;BME280;13479;49.044;8.716;2023-06-01T16:54:34;98840.09;;;28.52;29.00
25610;BME280;13479;49.044;8.716;2023-06-01T16:56:59;98829.41;;;28.50;28.76
25610;BME280;13479;49.044;8.716;2023-06-01T16:59:26;98833.44;;;28.43;28.34
25610;BME280;13479;49.044;8.716;2023-06-01T17:01:51;98835.78;;;28.34;29.50
25610;BME280;13479;49.044;8.716;2023-06-01T17:04:16;98833.13;;;28.17;29.01
25610;BME280;13479;49.044;8.716;2023-06-01T17:06:42;98828.09;;;28.09;29.00
25610;BME280;13479;49.044;8.716;2023-06-01T17:09:07;98829.06;;;28.02;29.49
25610;BME280;13479;49.044;8.716;2023-06-01T17:11:32;98836.03;;;27.93;29.86